Time;durP1;ratioP1;P1;durP2;ratioP2;P2;SDS_P1;SDS_P2;PMS_P1;PMS_P2;Temp;Humidity;BMP_temperature;BMP_pressure;BME280_temperature;BME280_humidity;BME280_pressure;Samples;Min_cycle;Max_cycle;Signal;HPM_P1;HPM_P2
2023/03/13 00:01:01;;;;;;;;;;;16.40;49.10;;;;;;5007377;28;19917;-73
2023/03/13 00:03:27;;;;;;;;;;;16.40;49.10;;;;;;5010171;28;19917;-73
2023/03/13 00:05:56;;;;;;;;;;;16.40;49.00;;;;;;5006696;28;19909;-73
2023/03/13 00:08:21;;;;;;;;;;;16.40;49.10;;;;;;5011099;28;19917;-73
2023/03/13 00:10:47;;;;;;;;;;;16.40;49.10;;;;;;5027266;28;19932;-73
2023/03/13 00:13:12;;;;;;;;;;;16.40;49.10;;;;;;5013143;28;19921;-73
2023/03/13 00:15:38;;;;;;;;;;;16.40;49.10;;;;;;5028298;28;19910;-73
2023/03/13 00:18:03;;;;;;;;;;;16.40;49.10;;;;;;5028233;28;20405;-73
2023/03/13 00:20:29;;;;;;;;;;;16.40;49.10;;;;;;5017125;28;20290;-72
2023/03/13 00:22:54;;;;;;;;;;;16.30;49.20;;;;;;5010765;28;19913;-72
2023/03/13 00:25:20;;;;;;;;;;;16.30;49.20;;;;;;5011574;28;19949;-72
2023/03/13 00:27:45;;;;;;;;;;;16.30;49.30;;;;;;5022358;28;20674;-72
2023/03/13 00:30:11;;;;;;;;;;;16.30;49.30;;;;;;5014808;28;19943;-73
2023/03/13 00:32:44;;;;;;;;;;;16.30;49.30;;;;;;5050395;27;19920;-73
2023/03/13 00:35:10;;;;;;;;;;;16.20;49.30;;;;;;5011587;28;20397;-73
2023/03/13 00:37:36;;;;;;;;;;;16.20;49.40;;;;;;5011925;28;19909;-72
2023/03/13 00:40:03;;;;;;;;;;;16.20;49.60;;;;;;4994701;28;19917;-73
2023/03/13 00:42:28;;;;;;;;;;;16.10;49.40;;;;;;5011358;28;20343;-73
2023/03/13 00:44:54;;;;;;;;;;;16.20;49.60;;;;;;5029811;28;19956;-72
2023/03/13 00:47:19;;;;;;;;;;;16.10;49.50;;;;;;5032762;28;20392;-73
2023/03/13 00:49:45;;;;;;;;;;;16.10;49.60;;;;;;5031005;28;19913;-73
2023/03/13 00:52:10;;;;;;;;;;;16.10;49.60;;;;;;5015206;28;20375;-72
2023/03/13 00:54:35;;;;;;;;;;;16.10;49.60;;;;;;5023722;28;19928;-73
2023/03/13 00:57:01;;;;;;;;;;;16.00;50.30;;;;;;5010538;28;19989;-72
2023/03/13 00:59:26;;;;;;;;;;;16.00;49.70;;;;;;5011574;28;19909;-73
2023/03/13 01:01:52;;;;;;;;;;;16.10;49.70;;;;;;4998420;28;19956;-73
2023/03/13 01:04:17;;;;;;;;;;;16.00;49.70;;;;;;5013270;28;19910;-72
2023/03/13 01:06:43;;;;;;;;;;;15.90;49.80;;;;;;5031037;28;20004;-73
2023/03/13 01:09:09;;;;;;;;;;;15.90;49.90;;;;;;5017982;28;20394;-72
2023/03/13 01:11:35;;;;;;;;;;;15.90;50.00;;;;;;5010887;28;19960;-72
2023/03/13 01:14:01;;;;;;;;;;;15.90;50.00;;;;;;5011464;28;19932;-73
2023/03/13 01:16:27;;;;;;;;;;;15.90;50.00;;;;;;5012435;28;20053;-73
2023/03/13 01:18:54;;;;;;;;;;;15.90;50.00;;;;;;5011889;28;19914;-73
2023/03/13 01:21:20;;;;;;;;;;;15.90;50.00;;;;;;5011052;28;19940;-72
2023/03/13 01:23:46;;;;;;;;;;;15.90;50.00;;;;;;5012478;28;19957;-72
2023/03/13 01:26:11;;;;;;;;;;;15.90;50.00;;;;;;5010710;28;19913;-73
2023/03/13 01:28:36;;;;;;;;;;;15.90;50.00;;;;;;5025315;28;20450;-73
2023/03/13 01:31:12;;;;;;;;;;;15.90;50.00;;;;;;5013961;28;20427;-72
2023/03/13 01:33:37;;;;;;;;;;;15.90;50.00;;;;;;5030860;27;19917;-72
2023/03/13 01:36:03;;;;;;;;;;;15.90;50.00;;;;;;5021317;28;20392;-72
2023/03/13 01:38:28;;;;;;;;;;;15.90;50.00;;;;;;5027944;28;19917;-73
2023/03/13 01:40:54;;;;;;;;;;;15.80;50.00;;;;;;5013628;28;20419;-73
2023/03/13 01:43:23;;;;;;;;;;;15.80;50.10;;;;;;5013630;28;19910;-72
2023/03/13 01:45:56;;;;;;;;;;;15.80;50.10;;;;;;5009954;28;19914;-72
2023/03/13 01:48:24;;;;;;;;;;;15.70;50.10;;;;;;4994549;28;20321;-72
2023/03/13 01:50:50;;;;;;;;;;;15.70;50.20;;;;;;5010788;28;19921;-72
2023/03/13 01:53:16;;;;;;;;;;;15.70;50.20;;;;;;5011264;28;19917;-73
2023/03/13 01:55:41;;;;;;;;;;;15.70;50.30;;;;;;5010021;28;19922;-73
2023/03/13 01:58:07;;;;;;;;;;;15.70;50.40;;;;;;5010529;28;20384;-73
2023/03/13 02:00:33;;;;;;;;;;;15.70;50.30;;;;;;5010538;28;20287;-72
2023/03/13 02:02:59;;;;;;;;;;;15.70;50.40;;;;;;5025753;28;19958;-73
2023/03/13 02:05:24;;;;;;;;;;;15.60;50.50;;;;;;5027391;28;19921;-73
2023/03/13 02:08:17;;;;;;;;;;;15.60;50.50;;;;;;5010497;28;20286;-73
2023/03/13 02:11:03;;;;;;;;;;;15.60;50.40;;;;;;5009777;28;19925;-73
2023/03/13 02:13:29;;;;;;;;;;;15.70;50.40;;;;;;5009871;28;20354;-72
2023/03/13 02:15:54;;;;;;;;;;;15.80;50.30;;;;;;5010415;28;19966;-72
2023/03/13 02:18:20;;;;;;;;;;;15.90;49.80;;;;;;5019917;28;20057;-72
2023/03/13 02:20:45;;;;;;;;;;;16.10;49.70;;;;;;5029771;28;19909;-72
2023/03/13 02:23:17;;;;;;;;;;;16.40;49.20;;;;;;5031185;28;20361;-73
2023/03/13 02:25:44;;;;;;;;;;;16.70;48.60;;;;;;5029769;28;19917;-73
2023/03/13 02:28:11;;;;;;;;;;;16.90;48.00;;;;;;5009635;28;19913;-73
2023/03/13 02:30:37;;;;;;;;;;;17.30;47.40;;;;;;5042111;28;20358;-73
2023/03/13 02:33:02;;;;;;;;;;;17.60;46.70;;;;;;5012548;28;19932;-73
2023/03/13 02:35:28;;;;;;;;;;;18.10;46.00;;;;;;4994064;28;19929;-73
2023/03/13 02:37:54;;;;;;;;;;;18.50;45.00;;;;;;5008956;28;19918;-73
2023/03/13 02:40:20;;;;;;;;;;;18.90;44.20;;;;;;5009540;28;19913;-73
2023/03/13 02:42:46;;;;;;;;;;;19.10;43.70;;;;;;5009908;28;19909;-73
2023/03/13 02:45:15;;;;;;;;;;;19.10;43.70;;;;;;4993042;28;19971;-73
2023/03/13 02:47:40;;;;;;;;;;;19.00;43.70;;;;;;5009707;28;19921;-73
2023/03/13 02:50:06;;;;;;;;;;;18.80;44.20;;;;;;4998335;28;20447;-73
2023/03/13 02:52:32;;;;;;;;;;;18.60;44.50;;;;;;5010185;28;19910;-73
2023/03/13 02:54:58;;;;;;;;;;;18.50;44.80;;;;;;5009357;28;19973;-73
2023/03/13 02:57:23;;;;;;;;;;;18.40;45.10;;;;;;5009668;28;19944;-73
2023/03/13 02:59:49;;;;;;;;;;;18.30;45.90;;;;;;5014902;28;20008;-73
2023/03/13 03:02:14;;;;;;;;;;;18.20;45.50;;;;;;5021439;27;19921;-73
2023/03/13 03:04:40;;;;;;;;;;;18.20;45.80;;;;;;5025927;28;19914;-73
2023/03/13 03:07:05;;;;;;;;;;;18.10;46.00;;;;;;5011772;28;19988;-73
2023/03/13 03:09:31;;;;;;;;;;;17.90;46.20;;;;;;4992831;28;19949;-73
2023/03/13 03:11:56;;;;;;;;;;;17.80;46.40;;;;;;5008959;28;19921;-73
2023/03/13 03:14:22;;;;;;;;;;;17.80;46.60;;;;;;5009666;28;20016;-73
2023/03/13 03:16:47;;;;;;;;;;;17.70;46.80;;;;;;5010443;28;19935;-73
2023/03/13 03:19:12;;;;;;;;;;;17.60;46.90;;;;;;5010035;28;19917;-73
2023/03/13 03:21:38;;;;;;;;;;;17.50;47.00;;;;;;5010107;28;19913;-73
2023/03/13 03:24:03;;;;;;;;;;;17.50;47.20;;;;;;4992905;28;20313;-73
2023/03/13 03:26:29;;;;;;;;;;;17.40;47.30;;;;;;5004269;28;19917;-73
2023/03/13 03:28:54;;;;;;;;;;;17.30;47.40;;;;;;5027066;28;19921;-73
2023/03/13 03:31:20;;;;;;;;;;;17.20;47.60;;;;;;5022290;28;20414;-73
2023/03/13 03:33:45;;;;;;;;;;;17.10;47.80;;;;;;5009330;28;20313;-73
2023/03/13 03:36:15;;;;;;;;;;;17.00;48.00;;;;;;4992887;28;19910;-74
2023/03/13 03:38:40;;;;;;;;;;;17.00;48.20;;;;;;5010358;28;19914;-73
2023/03/13 03:41:06;;;;;;;;;;;17.00;48.40;;;;;;4992288;28;19909;-73
2023/03/13 03:43:32;;;;;;;;;;;16.90;48.50;;;;;;5008929;28;20307;-74
2023/03/13 03:45:57;;;;;;;;;;;16.90;48.70;;;;;;4992826;28;19916;-73
2023/03/13 03:48:23;;;;;;;;;;;16.80;48.70;;;;;;5009202;28;19917;-74
2023/03/13 03:50:48;;;;;;;;;;;16.80;48.90;;;;;;5010129;28;19918;-74
2023/03/13 03:53:14;;;;;;;;;;;16.70;48.90;;;;;;5009003;28;19921;-73
2023/03/13 03:55:39;;;;;;;;;;;16.70;49.00;;;;;;5008708;28;19918;-74
2023/03/13 03:58:05;;;;;;;;;;;16.70;49.10;;;;;;5011919;28;19917;-73
2023/03/13 04:00:30;;;;;;;;;;;16.70;49.10;;;;;;5012256;28;20405;-73
2023/03/13 04:02:56;;;;;;;;;;;16.70;49.00;;;;;;5027430;27;20313;-73
2023/03/13 04:05:21;;;;;;;;;;;16.80;49.00;;;;;;5015351;28;19916;-73
2023/03/13 04:07:47;;;;;;;;;;;16.80;48.90;;;;;;5022108;28;19920;-73
2023/03/13 04:10:12;;;;;;;;;;;16.90;48.70;;;;;;4996052;28;20018;-73
2023/03/13 04:12:38;;;;;;;;;;;17.00;48.50;;;;;;5012113;28;19941;-73
2023/03/13 04:15:04;;;;;;;;;;;17.10;48.30;;;;;;5028712;28;19910;-74
2023/03/13 04:17:30;;;;;;;;;;;17.20;48.10;;;;;;5020381;28;19924;-74
2023/03/13 04:19:55;;;;;;;;;;;17.30;47.80;;;;;;5011049;28;19914;-73
2023/03/13 04:22:20;;;;;;;;;;;17.40;47.70;;;;;;5011814;28;20364;-73
2023/03/13 04:24:46;;;;;;;;;;;17.40;47.60;;;;;;5011871;28;19928;-73
2023/03/13 04:27:11;;;;;;;;;;;17.40;47.60;;;;;;5022638;28;19920;-73
2023/03/13 04:29:37;;;;;;;;;;;17.40;47.80;;;;;;5031635;28;19917;-74
2023/03/13 04:32:03;;;;;;;;;;;17.30;47.80;;;;;;5012770;28;20012;-74
2023/03/13 04:34:28;;;;;;;;;;;17.20;47.90;;;;;;5088872;28;20327;-74
2023/03/13 04:36:54;;;;;;;;;;;17.20;48.00;;;;;;5015190;28;19917;-74
2023/03/13 04:39:24;;;;;;;;;;;17.20;48.20;;;;;;5011637;28;19953;-74
2023/03/13 04:41:52;;;;;;;;;;;17.10;48.30;;;;;;5001258;28;20334;-74
2023/03/13 04:44:18;;;;;;;;;;;17.00;48.50;;;;;;5004576;28;19949;-74
2023/03/13 04:46:43;;;;;;;;;;;16.90;48.50;;;;;;4995317;28;20295;-73
2023/03/13 04:49:09;;;;;;;;;;;16.90;48.70;;;;;;5011616;28;20378;-73
2023/03/13 04:51:34;;;;;;;;;;;16.90;48.90;;;;;;5011466;28;19914;-74
2023/03/13 04:54:00;;;;;;;;;;;16.80;48.90;;;;;;5011906;28;19909;-74
2023/03/13 04:56:25;;;;;;;;;;;16.80;49.10;;;;;;5027252;28;20366;-74
2023/03/13 04:58:51;;;;;;;;;;;16.80;49.20;;;;;;4995387;28;19936;-74
2023/03/13 05:01:16;;;;;;;;;;;16.80;49.20;;;;;;5023761;28;19909;-74
2023/03/13 05:03:42;;;;;;;;;;;16.80;49.20;;;;;;5049833;27;19920;-74
2023/03/13 05:06:07;;;;;;;;;;;16.80;49.20;;;;;;5028362;28;19909;-74
2023/03/13 05:08:35;;;;;;;;;;;16.70;49.10;;;;;;5004710;28;19918;-74
2023/03/13 05:11:01;;;;;;;;;;;16.80;49.20;;;;;;5010977;28;19916;-74
2023/03/13 05:13:26;;;;;;;;;;;16.80;49.20;;;;;;4994984;28;20289;-74
2023/03/13 05:15:51;;;;;;;;;;;16.70;49.20;;;;;;4994463;28;19910;-74
2023/03/13 05:18:17;;;;;;;;;;;16.80;49.30;;;;;;5015861;28;20015;-74
2023/03/13 05:20:42;;;;;;;;;;;16.80;49.20;;;;;;5026389;28;20208;-74
2023/03/13 05:23:08;;;;;;;;;;;16.80;49.20;;;;;;5014814;28;19935;-74
2023/03/13 05:25:33;;;;;;;;;;;16.80;49.20;;;;;;5010578;28;19916;-74
2023/03/13 05:27:59;;;;;;;;;;;16.80;49.10;;;;;;5030005;28;19921;-74
2023/03/13 05:30:24;;;;;;;;;;;16.80;49.20;;;;;;5050264;28;19920;-74
2023/03/13 05:32:50;;;;;;;;;;;16.80;49.20;;;;;;5016868;28;19941;-74
2023/03/13 05:35:15;;;;;;;;;;;16.80;49.10;;;;;;5010435;28;19978;-74
2023/03/13 05:37:41;;;;;;;;;;;16.80;49.20;;;;;;4994581;28;19916;-74
2023/03/13 05:40:07;;;;;;;;;;;16.80;49.20;;;;;;5017833;28;19916;-74
2023/03/13 05:42:33;;;;;;;;;;;16.80;49.20;;;;;;5014274;28;20003;-74
2023/03/13 05:44:58;;;;;;;;;;;16.90;49.20;;;;;;5018059;28;20008;-74
2023/03/13 05:47:24;;;;;;;;;;;16.90;49.20;;;;;;5012216;28;19925;-74
2023/03/13 05:49:49;;;;;;;;;;;16.90;49.30;;;;;;5030286;28;19916;-73
2023/03/13 05:52:15;;;;;;;;;;;16.80;49.10;;;;;;5029544;28;19909;-73
2023/03/13 05:54:40;;;;;;;;;;;16.90;49.30;;;;;;5030128;28;20351;-73
2023/03/13 05:57:05;;;;;;;;;;;16.90;49.30;;;;;;5013082;28;20000;-74
2023/03/13 05:59:31;;;;;;;;;;;16.90;49.30;;;;;;5004485;28;19963;-73
2023/03/13 06:01:56;;;;;;;;;;;16.90;49.30;;;;;;5050781;27;19918;-74
2023/03/13 06:04:22;;;;;;;;;;;16.90;49.30;;;;;;5104216;27;19908;-74
2023/03/13 06:06:47;;;;;;;;;;;16.90;49.30;;;;;;5009978;28;19945;-74
2023/03/13 06:09:13;;;;;;;;;;;16.90;49.30;;;;;;5021784;28;19921;-74
2023/03/13 06:11:38;;;;;;;;;;;16.80;49.40;;;;;;5013366;28;19913;-74
2023/03/13 06:14:04;;;;;;;;;;;16.80;49.50;;;;;;5013653;28;20371;-74
2023/03/13 06:16:29;;;;;;;;;;;16.80;49.50;;;;;;5015020;28;19914;-74
2023/03/13 06:18:55;;;;;;;;;;;16.80;49.60;;;;;;5014448;28;20008;-74
2023/03/13 06:21:20;;;;;;;;;;;16.80;49.50;;;;;;5012648;28;19913;-74
2023/03/13 06:23:45;;;;;;;;;;;16.80;49.70;;;;;;5012819;28;19923;-74
2023/03/13 06:26:11;;;;;;;;;;;16.80;49.80;;;;;;5003200;28;19909;-74
2023/03/13 06:28:36;;;;;;;;;;;16.80;49.70;;;;;;5018075;28;20362;-74
2023/03/13 06:31:02;;;;;;;;;;;16.80;49.90;;;;;;5012384;28;20299;-73
2023/03/13 06:33:28;;;;;;;;;;;16.80;49.90;;;;;;5012714;27;20000;-73
2023/03/13 06:35:54;;;;;;;;;;;16.80;50.00;;;;;;5010087;28;20417;-73
2023/03/13 06:38:19;;;;;;;;;;;16.80;50.00;;;;;;4993737;28;19975;-73
2023/03/13 06:40:45;;;;;;;;;;;16.80;50.20;;;;;;4993105;28;19937;-73
2023/03/13 06:43:10;;;;;;;;;;;16.80;50.00;;;;;;5010681;28;19953;-73
2023/03/13 06:45:36;;;;;;;;;;;16.80;50.40;;;;;;4994301;28;19963;-73
2023/03/13 06:48:01;;;;;;;;;;;16.80;50.30;;;;;;5009965;28;20405;-73
2023/03/13 06:50:27;;;;;;;;;;;16.80;50.20;;;;;;5009872;28;19939;-73
2023/03/13 06:52:53;;;;;;;;;;;16.80;50.10;;;;;;4993709;28;19910;-73
2023/03/13 06:55:18;;;;;;;;;;;16.80;50.10;;;;;;5010849;28;19910;-73
2023/03/13 06:57:48;;;;;;;;;;;16.80;50.40;;;;;;5011566;28;20333;-73
2023/03/13 07:00:13;;;;;;;;;;;16.70;50.40;;;;;;5009667;28;19910;-73
2023/03/13 07:02:39;;;;;;;;;;;16.80;50.50;;;;;;5022364;27;19940;-73
2023/03/13 07:05:04;;;;;;;;;;;16.80;50.20;;;;;;5028997;28;19939;-72
2023/03/13 07:07:31;;;;;;;;;;;16.70;50.40;;;;;;5013834;28;19913;-73
2023/03/13 07:09:57;;;;;;;;;;;16.70;50.30;;;;;;5011890;28;20469;-73
2023/03/13 07:12:23;;;;;;;;;;;16.80;50.40;;;;;;5005984;28;19914;-73
2023/03/13 07:14:48;;;;;;;;;;;16.80;50.70;;;;;;5078200;28;19910;-74
2023/03/13 07:17:14;;;;;;;;;;;16.80;50.60;;;;;;5064207;28;20419;-73
2023/03/13 07:19:39;;;;;;;;;;;16.80;50.60;;;;;;5009501;28;19933;-73
2023/03/13 07:22:04;;;;;;;;;;;16.80;50.50;;;;;;5002253;28;20000;-73
2023/03/13 07:24:30;;;;;;;;;;;16.80;50.50;;;;;;5018361;28;19913;-73
2023/03/13 07:26:56;;;;;;;;;;;16.80;50.60;;;;;;5008112;28;20371;-73
2023/03/13 07:29:21;;;;;;;;;;;16.80;50.70;;;;;;5010331;28;19966;-73
2023/03/13 07:31:46;;;;;;;;;;;16.80;50.70;;;;;;5013981;27;20358;-73
2023/03/13 07:34:12;;;;;;;;;;;16.70;50.70;;;;;;5008608;28;19913;-73
2023/03/13 07:36:39;;;;;;;;;;;16.70;50.60;;;;;;5009144;28;20339;-73
2023/03/13 07:39:04;;;;;;;;;;;16.70;50.90;;;;;;5009384;28;19921;-73
2023/03/13 07:41:30;;;;;;;;;;;16.70;50.90;;;;;;5011286;28;20032;-73
2023/03/13 07:43:55;;;;;;;;;;;16.70;50.90;;;;;;5029790;28;19909;-73
2023/03/13 07:46:21;;;;;;;;;;;16.70;50.90;;;;;;5028757;28;20430;-73
2023/03/13 07:48:46;;;;;;;;;;;16.70;51.00;;;;;;5012146;28;20296;-73
2023/03/13 07:51:13;;;;;;;;;;;16.70;51.00;;;;;;5028764;28;19948;-73
2023/03/13 07:53:38;;;;;;;;;;;16.80;51.00;;;;;;4999600;28;20286;-73
2023/03/13 07:56:05;;;;;;;;;;;16.70;50.90;;;;;;5011801;28;19923;-73
2023/03/13 07:58:31;;;;;;;;;;;16.70;51.00;;;;;;5008121;28;20012;-73
2023/03/13 08:00:57;;;;;;;;;;;16.70;50.90;;;;;;5012078;28;19963;-73
2023/03/13 08:03:23;;;;;;;;;;;16.70;51.20;;;;;;5012606;28;19937;-73
2023/03/13 08:05:58;;;;;;;;;;;16.80;51.10;;;;;;5038160;28;19913;-73
2023/03/13 08:08:24;;;;;;;;;;;16.80;51.20;;;;;;5018036;28;20323;-74
2023/03/13 08:10:49;;;;;;;;;;;16.80;51.00;;;;;;5027911;28;19925;-73
2023/03/13 08:13:15;;;;;;;;;;;16.80;51.40;;;;;;5011804;28;20398;-73
2023/03/13 08:15:40;;;;;;;;;;;16.80;51.40;;;;;;5011646;28;20362;-74
2023/03/13 08:18:06;;;;;;;;;;;16.80;51.20;;;;;;5026681;28;20385;-73
2023/03/13 08:20:31;;;;;;;;;;;16.80;51.20;;;;;;5009456;28;19952;-73
2023/03/13 08:22:57;;;;;;;;;;;16.80;51.60;;;;;;5008556;28;19909;-73
2023/03/13 08:25:22;;;;;;;;;;;16.80;51.40;;;;;;5008097;28;19945;-73
2023/03/13 08:27:48;;;;;;;;;;;16.80;51.90;;;;;;5013176;28;19999;-73
2023/03/13 08:30:13;;;;;;;;;;;16.80;51.90;;;;;;5019381;28;19917;-74
2023/03/13 08:32:39;;;;;;;;;;;16.80;51.90;;;;;;5005602;28;19921;-73
2023/03/13 08:35:04;;;;;;;;;;;16.80;51.90;;;;;;5010551;28;19933;-73
2023/03/13 08:37:30;;;;;;;;;;;16.80;51.60;;;;;;5008631;28;19910;-73
2023/03/13 08:39:55;;;;;;;;;;;16.90;51.80;;;;;;5013035;28;19909;-73
2023/03/13 08:42:21;;;;;;;;;;;16.80;51.90;;;;;;5011791;28;19934;-73
2023/03/13 08:44:47;;;;;;;;;;;16.80;51.70;;;;;;5031733;28;20301;-74
2023/03/13 08:47:12;;;;;;;;;;;16.80;51.80;;;;;;5015096;28;19909;-74
2023/03/13 08:49:38;;;;;;;;;;;16.80;51.80;;;;;;5012355;28;19928;-73
2023/03/13 08:52:04;;;;;;;;;;;16.80;51.70;;;;;;5025310;28;19963;-74
2023/03/13 08:54:30;;;;;;;;;;;16.80;51.60;;;;;;5006735;28;20001;-74
2023/03/13 08:56:55;;;;;;;;;;;16.90;52.30;;;;;;5018861;27;20416;-74
2023/03/13 08:59:21;;;;;;;;;;;17.60;51.10;;;;;;5034831;27;19919;-74
2023/03/13 09:01:46;;;;;;;;;;;18.20;49.10;;;;;;5011259;28;20263;-74
2023/03/13 09:04:12;;;;;;;;;;;19.10;47.50;;;;;;5018037;28;20008;-74
2023/03/13 09:06:38;;;;;;;;;;;19.70;46.10;;;;;;5026860;28;19957;-74
2023/03/13 09:09:04;;;;;;;;;;;20.20;45.20;;;;;;5027635;28;20361;-74
2023/03/13 09:11:29;;;;;;;;;;;20.50;44.80;;;;;;5025281;28;19924;-74
2023/03/13 09:13:57;;;;;;;;;;;20.80;44.40;;;;;;5010641;28;19917;-75
2023/03/13 09:16:24;;;;;;;;;;;21.00;44.20;;;;;;5019161;28;19921;-74
2023/03/13 09:18:49;;;;;;;;;;;21.10;43.90;;;;;;5026188;28;20012;-74
2023/03/13 09:21:16;;;;;;;;;;;21.30;43.80;;;;;;5017387;28;20393;-74
2023/03/13 09:23:41;;;;;;;;;;;21.40;43.50;;;;;;5010744;28;19909;-74
2023/03/13 09:26:07;;;;;;;;;;;21.50;43.40;;;;;;5018542;28;20389;-74
2023/03/13 09:28:32;;;;;;;;;;;21.60;43.10;;;;;;5021765;28;20028;-75
2023/03/13 09:31:08;;;;;;;;;;;21.60;43.20;;;;;;5029196;28;20330;-74
2023/03/13 09:33:33;;;;;;;;;;;21.70;43.10;;;;;;5013975;28;19913;-74
2023/03/13 09:35:59;;;;;;;;;;;21.80;43.20;;;;;;5025364;28;20397;-74
2023/03/13 09:38:24;;;;;;;;;;;21.80;43.10;;;;;;5024115;28;19922;-74
2023/03/13 09:40:50;;;;;;;;;;;21.80;43.20;;;;;;5024542;28;19909;-74
2023/03/13 09:43:31;;;;;;;;;;;21.80;43.20;;;;;;5020186;28;19917;-74
2023/03/13 09:45:58;;;;;;;;;;;21.90;43.20;;;;;;5022797;28;20275;-74
2023/03/13 09:48:29;;;;;;;;;;;21.90;43.20;;;;;;5005114;28;20435;-74
2023/03/13 09:51:05;;;;;;;;;;;21.90;43.10;;;;;;5015948;28;20367;-74
2023/03/13 09:53:36;;;;;;;;;;;21.90;43.10;;;;;;5002400;28;19920;-74
2023/03/13 09:56:02;;;;;;;;;;;21.90;43.20;;;;;;5016821;28;20011;-74
2023/03/13 09:58:28;;;;;;;;;;;21.90;43.20;;;;;;5024309;28;19913;-74
2023/03/13 10:00:54;;;;;;;;;;;21.90;43.30;;;;;;5012521;28;20227;-74
2023/03/13 10:03:20;;;;;;;;;;;22.00;43.40;;;;;;5007063;28;19963;-74
2023/03/13 10:05:47;;;;;;;;;;;22.00;43.40;;;;;;5010509;28;19910;-74
2023/03/13 10:08:20;;;;;;;;;;;22.00;43.40;;;;;;5004297;28;19917;-74
2023/03/13 10:10:51;;;;;;;;;;;22.00;43.50;;;;;;5020845;28;20008;-74
2023/03/13 10:13:25;;;;;;;;;;;22.00;43.60;;;;;;5014737;28;19959;-74
2023/03/13 10:15:53;;;;;;;;;;;21.90;43.60;;;;;;5017033;28;19913;-74
2023/03/13 10:18:22;;;;;;;;;;;21.90;43.70;;;;;;5029571;28;19913;-74
2023/03/13 10:20:48;;;;;;;;;;;21.90;43.70;;;;;;5008866;28;19909;-74
2023/03/13 10:23:15;;;;;;;;;;;21.90;43.70;;;;;;5024417;28;20424;-74
2023/03/13 10:25:41;;;;;;;;;;;21.90;43.80;;;;;;5007990;28;20011;-74
2023/03/13 10:28:10;;;;;;;;;;;21.90;43.80;;;;;;5009801;28;20369;-74
2023/03/13 10:30:38;;;;;;;;;;;21.90;43.80;;;;;;5014005;28;19960;-74
2023/03/13 10:33:06;;;;;;;;;;;22.00;43.80;;;;;;5027429;28;20259;-74
2023/03/13 10:35:33;;;;;;;;;;;22.00;43.90;;;;;;5024108;28;20397;-74
2023/03/13 10:37:59;;;;;;;;;;;22.00;43.80;;;;;;5018061;28;19913;-74
2023/03/13 10:40:25;;;;;;;;;;;22.00;43.80;;;;;;5018815;28;19921;-74
2023/03/13 10:42:51;;;;;;;;;;;22.10;43.80;;;;;;5028888;28;19932;-74
2023/03/13 10:45:21;;;;;;;;;;;22.20;43.80;;;;;;5015861;28;19964;-74
2023/03/13 10:47:56;;;;;;;;;;;22.20;43.70;;;;;;5017755;28;20390;-74
2023/03/13 10:50:22;;;;;;;;;;;22.20;43.70;;;;;;5027310;28;19917;-74
2023/03/13 10:52:48;;;;;;;;;;;22.20;43.80;;;;;;5012413;28;19962;-74
2023/03/13 10:55:17;;;;;;;;;;;22.20;43.80;;;;;;5043360;28;20285;-74
2023/03/13 10:57:51;;;;;;;;;;;22.20;43.70;;;;;;5006234;28;20371;-74
2023/03/13 11:00:26;;;;;;;;;;;22.30;43.80;;;;;;4998957;28;19913;-74
2023/03/13 11:02:52;;;;;;;;;;;22.30;43.90;;;;;;5009737;28;19924;-72
2023/03/13 11:05:36;;;;;;;;;;;22.20;43.80;;;;;;5005122;28;20290;-73
2023/03/13 11:08:17;;;;;;;;;;;22.20;44.00;;;;;;5016279;28;19925;-73
2023/03/13 11:10:54;;;;;;;;;;;22.10;44.10;;;;;;4994961;28;19929;-74
2023/03/13 11:13:46;;;;;;;;;;;22.00;44.30;;;;;;5017581;28;19940;-74
2023/03/13 11:16:11;;;;;;;;;;;22.10;45.00;;;;;;5031863;28;19909;-74
2023/03/13 11:19:00;;;;;;;;;;;22.10;44.20;;;;;;5023944;28;20393;-74
2023/03/13 11:21:45;;;;;;;;;;;22.20;44.20;;;;;;5011136;28;19944;-74
2023/03/13 11:24:16;;;;;;;;;;;22.20;44.30;;;;;;4994930;28;20286;-74
2023/03/13 11:26:48;;;;;;;;;;;22.20;44.30;;;;;;5006103;28;19914;-74
2023/03/13 11:29:37;;;;;;;;;;;22.30;44.20;;;;;;5026656;28;19950;-74
2023/03/13 11:32:04;;;;;;;;;;;22.30;44.20;;;;;;5015891;28;19929;-74
2023/03/13 11:34:49;;;;;;;;;;;22.30;44.00;;;;;;5008676;28;20421;-73
2023/03/13 11:37:15;;;;;;;;;;;22.40;44.20;;;;;;5027465;28;19917;-74
2023/03/13 11:39:46;;;;;;;;;;;22.40;44.10;;;;;;5008312;28;20363;-74
2023/03/13 11:42:17;;;;;;;;;;;22.40;44.00;;;;;;5017613;28;19910;-74
2023/03/13 11:44:56;;;;;;;;;;;22.50;44.00;;;;;;5014674;28;19913;-74
2023/03/13 11:47:40;;;;;;;;;;;22.40;44.00;;;;;;5008610;28;20416;-74
2023/03/13 11:50:15;;;;;;;;;;;22.40;44.10;;;;;;5016523;28;20342;-74
2023/03/13 11:52:59;;;;;;;;;;;22.40;44.20;;;;;;5028358;28;19909;-73
2023/03/13 11:55:36;;;;;;;;;;;22.50;44.20;;;;;;5025711;28;19918;-74
2023/03/13 11:58:12;;;;;;;;;;;22.40;44.10;;;;;;5003162;28;19917;-74
2023/03/13 12:00:43;;;;;;;;;;;22.50;44.20;;;;;;5000743;28;19992;-74
2023/03/13 12:03:12;;;;;;;;;;;22.50;44.30;;;;;;5025481;28;19939;-74
2023/03/13 12:05:40;;;;;;;;;;;22.40;44.40;;;;;;5026659;28;19909;-74
2023/03/13 12:08:06;;;;;;;;;;;22.40;44.50;;;;;;5008382;28;20267;-74
2023/03/13 12:10:33;;;;;;;;;;;22.30;44.60;;;;;;5088314;28;19929;-74
2023/03/13 12:13:13;;;;;;;;;;;22.30;44.50;;;;;;5024391;28;19937;-74
2023/03/13 12:16:04;;;;;;;;;;;22.30;44.70;;;;;;4995830;28;19913;-74
2023/03/13 12:18:31;;;;;;;;;;;22.30;44.80;;;;;;5018536;28;20374;-74
2023/03/13 12:20:57;;;;;;;;;;;22.30;44.70;;;;;;5016790;28;19956;-73
2023/03/13 12:23:43;;;;;;;;;;;22.30;44.80;;;;;;5027121;28;19952;-73
2023/03/13 12:26:11;;;;;;;;;;;22.30;44.80;;;;;;5014817;28;20378;-73
2023/03/13 12:28:37;;;;;;;;;;;22.40;44.70;;;;;;5026558;27;19920;-73
2023/03/13 12:31:21;;;;;;;;;;;22.40;44.90;;;;;;5010231;28;19913;-74
2023/03/13 12:33:50;;;;;;;;;;;22.40;45.20;;;;;;5010432;28;19916;-74
2023/03/13 12:36:21;;;;;;;;;;;22.60;45.10;;;;;;4994130;28;20327;-74
2023/03/13 12:38:53;;;;;;;;;;;22.80;44.70;;;;;;5017966;28;19955;-73
2023/03/13 12:41:23;;;;;;;;;;;23.00;44.30;;;;;;5019558;28;19956;-73
2023/03/13 12:43:49;;;;;;;;;;;23.20;44.00;;;;;;5008726;28;20453;-73
2023/03/13 12:46:15;;;;;;;;;;;23.30;43.90;;;;;;5014062;28;19943;-74
2023/03/13 12:48:40;;;;;;;;;;;23.30;43.70;;;;;;5027806;28;19917;-74
2023/03/13 12:51:25;;;;;;;;;;;23.40;43.80;;;;;;5022670;28;19920;-74
2023/03/13 12:53:50;;;;;;;;;;;23.30;43.90;;;;;;5026063;28;19913;-75
2023/03/13 12:56:25;;;;;;;;;;;23.10;44.10;;;;;;5022153;28;19921;-74
2023/03/13 12:58:51;;;;;;;;;;;23.10;44.20;;;;;;5030071;28;19913;-74
2023/03/13 13:01:23;;;;;;;;;;;23.10;44.20;;;;;;5021902;28;19917;-74
2023/03/13 13:03:54;;;;;;;;;;;23.10;44.30;;;;;;5027760;28;19913;-74
2023/03/13 13:06:19;;;;;;;;;;;23.00;44.40;;;;;;5019688;28;19931;-74
2023/03/13 13:09:00;;;;;;;;;;;23.00;44.30;;;;;;5007227;28;20012;-74
2023/03/13 13:11:38;;;;;;;;;;;23.00;44.50;;;;;;5003442;28;19921;-73
2023/03/13 13:14:18;;;;;;;;;;;23.00;44.60;;;;;;5022294;28;19913;-73
2023/03/13 13:16:47;;;;;;;;;;;22.90;44.70;;;;;;5018533;28;19914;-74
2023/03/13 13:19:22;;;;;;;;;;;22.90;44.60;;;;;;5030978;28;20355;-74
2023/03/13 13:22:06;;;;;;;;;;;22.90;44.60;;;;;;5027123;28;19913;-74
2023/03/13 13:24:38;;;;;;;;;;;22.90;44.70;;;;;;5015865;28;19909;-73
2023/03/13 13:27:08;;;;;;;;;;;23.00;44.60;;;;;;5047170;28;19909;-74
2023/03/13 13:29:33;;;;;;;;;;;22.90;44.60;;;;;;5022233;28;19970;-75
2023/03/13 13:32:00;;;;;;;;;;;22.90;44.80;;;;;;5031938;28;19917;-74
2023/03/13 13:34:29;;;;;;;;;;;22.90;44.70;;;;;;5030803;28;20011;-74
2023/03/13 13:36:55;;;;;;;;;;;22.90;44.60;;;;;;5028740;28;19917;-74
2023/03/13 13:39:33;;;;;;;;;;;22.90;44.70;;;;;;5009425;28;20032;-75
2023/03/13 13:41:58;;;;;;;;;;;22.90;44.70;;;;;;5018111;28;19935;-74
2023/03/13 13:44:25;;;;;;;;;;;22.90;44.80;;;;;;5005658;28;20417;-74
2023/03/13 13:46:51;;;;;;;;;;;22.90;44.80;;;;;;4998600;28;19925;-74
2023/03/13 13:49:17;;;;;;;;;;;23.00;44.80;;;;;;5020851;28;20320;-72
2023/03/13 13:52:01;;;;;;;;;;;23.10;44.80;;;;;;5024690;28;19909;-73
2023/03/13 13:54:29;;;;;;;;;;;23.20;44.60;;;;;;5023505;28;20282;-73
2023/03/13 13:56:56;;;;;;;;;;;23.30;44.40;;;;;;5009573;28;20034;-73
2023/03/13 13:59:24;;;;;;;;;;;23.30;44.20;;;;;;5007010;28;20385;-73
2023/03/13 14:02:04;;;;;;;;;;;23.30;44.00;;;;;;5021294;28;19917;-73
2023/03/13 14:04:42;;;;;;;;;;;23.40;44.20;;;;;;5009707;28;19924;-73
2023/03/13 14:07:28;;;;;;;;;;;23.40;44.90;;;;;;5011371;28;19921;-73
2023/03/13 14:09:57;;;;;;;;;;;23.40;44.10;;;;;;5024920;28;19968;-73
2023/03/13 14:12:26;;;;;;;;;;;23.40;44.10;;;;;;5031090;28;20285;-73
2023/03/13 14:15:07;;;;;;;;;;;23.50;44.20;;;;;;5027567;28;19910;-73
2023/03/13 14:17:39;;;;;;;;;;;23.50;44.00;;;;;;5028793;28;19913;-73
2023/03/13 14:20:07;;;;;;;;;;;23.50;44.00;;;;;;5030750;28;19920;-73